createdAt,value
2018-01-27T00:00:01.565Z,97627.56
2018-01-27T00:02:27.676Z,97624.50
2018-01-27T00:04:53.681Z,97622.42
2018-01-27T00:07:19.708Z,97625.77
2018-01-27T00:09:45.756Z,97628.81
2018-01-27T00:12:11.764Z,97635.48
2018-01-27T00:14:37.892Z,97632.48
2018-01-27T00:17:03.946Z,97631.31
2018-01-27T00:19:29.944Z,97631.36
2018-01-27T00:21:55.988Z,97635.16
2018-01-27T00:24:22.114Z,97635.87
2018-01-27T00:26:48.169Z,97635.22
2018-01-27T00:29:14.189Z,97645.52
2018-01-27T00:31:40.232Z,97648.16
2018-01-27T00:34:09.636Z,97649.70
2018-01-27T00:36:35.877Z,97655.61
2018-01-27T00:39:02.068Z,97664.48
2018-01-27T00:41:28.068Z,97664.37
2018-01-27T00:43:54.100Z,97669.62
2018-01-27T00:46:20.168Z,97654.09
2018-01-27T00:48:46.201Z,97658.81
2018-01-27T00:51:12.317Z,97655.08
2018-01-27T00:53:38.353Z,97658.60
2018-01-27T00:56:04.343Z,97666.29
2018-01-27T00:58:30.453Z,97667.08
2018-01-27T01:00:56.493Z,97669.98
2018-01-27T01:03:22.528Z,97661.59
2018-01-27T01:05:48.546Z,97670.23
2018-01-27T01:08:14.584Z,97662.41
2018-01-27T01:10:40.607Z,97661.73
2018-01-27T01:13:06.652Z,97660.42
2018-01-27T01:15:32.704Z,97666.09
2018-01-27T01:17:58.736Z,97662.94
2018-01-27T01:20:24.782Z,97674.16
2018-01-27T01:22:50.819Z,97682.61
2018-01-27T01:25:16.876Z,97678.44
2018-01-27T01:27:42.909Z,97678.94
2018-01-27T01:30:15.988Z,97681.64
2018-01-27T01:32:42.021Z,97688.48
2018-01-27T01:35:08.080Z,97695.29
2018-01-27T01:37:34.159Z,97689.22
2018-01-27T01:40:00.132Z,97698.84
2018-01-27T01:42:32.175Z,97688.24
2018-01-27T01:44:58.205Z,97691.83
2018-01-27T01:47:24.221Z,97691.16
2018-01-27T01:49:50.248Z,97702.02
2018-01-27T01:52:16.317Z,97712.55
2018-01-27T01:54:42.333Z,97718.97
2018-01-27T01:57:08.335Z,97723.14
2018-01-27T01:59:34.392Z,97729.18
2018-01-27T02:02:00.396Z,97732.84
2018-01-27T02:04:26.433Z,97732.61
2018-01-27T02:06:52.397Z,97735.47
2018-01-27T02:09:18.434Z,97727.06
2018-01-27T02:11:44.488Z,97733.86
2018-01-27T02:14:10.560Z,97731.79
2018-01-27T02:16:36.631Z,97740.56
2018-01-27T02:19:02.660Z,97732.33
2018-01-27T02:21:28.707Z,97732.05
2018-01-27T02:23:54.731Z,97734.33
2018-01-27T02:26:20.756Z,97729.84
2018-01-27T02:28:46.773Z,97732.06
2018-01-27T02:31:12.829Z,97732.22
2018-01-27T02:33:38.858Z,97737.50
2018-01-27T02:36:04.924Z,97746.16
2018-01-27T02:38:31.021Z,97739.77
2018-01-27T02:40:57.068Z,97742.30
2018-01-27T02:43:23.097Z,97748.81
2018-01-27T02:45:49.080Z,97743.17
2018-01-27T02:48:15.137Z,97734.23
2018-01-27T02:50:41.272Z,97738.34
2018-01-27T02:53:07.316Z,97739.11
2018-01-27T02:55:33.364Z,97731.81
2018-01-27T02:57:59.421Z,97730.37
2018-01-27T03:00:25.457Z,97727.59
2018-01-27T03:02:51.509Z,97724.16
2018-01-27T03:05:17.510Z,97734.91
2018-01-27T03:07:43.552Z,97734.66
2018-01-27T03:10:09.580Z,97742.20
2018-01-27T03:12:35.599Z,97749.53
2018-01-27T03:15:01.820Z,97758.75
2018-01-27T03:17:27.789Z,97762.50
2018-01-27T03:19:53.836Z,97754.56
2018-01-27T03:22:19.864Z,97761.30
2018-01-27T03:24:45.943Z,97768.62
2018-01-27T03:27:11.892Z,97774.34
2018-01-27T03:29:37.880Z,97770.52
2018-01-27T03:32:04.019Z,97770.24
2018-01-27T03:34:30.034Z,97774.64
2018-01-27T03:36:56.060Z,97785.78
2018-01-27T03:39:22.075Z,97792.08
2018-01-27T03:41:48.152Z,97790.97
2018-01-27T03:44:14.160Z,97794.20
2018-01-27T03:46:40.252Z,97795.97
2018-01-27T03:49:06.300Z,97797.05
2018-01-27T03:51:32.301Z,97796.61
2018-01-27T03:53:58.304Z,97795.60
2018-01-27T03:56:24.548Z,97797.70
2018-01-27T03:58:50.587Z,97804.40
2018-01-27T04:01:16.648Z,97810.41
2018-01-27T04:03:42.655Z,97814.80
2018-01-27T04:06:08.681Z,97818.09
2018-01-27T04:08:34.704Z,97822.34
2018-01-27T04:11:00.744Z,97831.37
2018-01-27T04:13:26.791Z,97838.30
2018-01-27T04:15:52.801Z,97841.56
2018-01-27T04:18:18.816Z,97840.23
2018-01-27T04:20:44.824Z,97854.83
2018-01-27T04:23:10.831Z,97859.34
2018-01-27T04:25:36.899Z,97858.34
2018-01-27T04:28:02.920Z,97861.81
2018-01-27T04:30:28.933Z,97858.42
2018-01-27T04:32:55.148Z,97862.13
2018-01-27T04:35:21.172Z,97867.32
2018-01-27T04:37:47.233Z,97874.41
2018-01-27T04:40:13.280Z,97879.63
2018-01-27T04:42:39.317Z,97887.35
2018-01-27T04:45:05.373Z,97882.13
2018-01-27T04:47:31.405Z,97885.44
2018-01-27T04:49:57.471Z,97884.06
2018-01-27T04:52:23.496Z,97886.31
2018-01-27T04:54:49.457Z,97895.70
2018-01-27T04:57:15.461Z,97896.31
2018-01-27T04:59:41.458Z,97906.89
2018-01-27T05:02:07.525Z,97903.83
2018-01-27T05:04:33.528Z,97914.01
2018-01-27T05:06:59.686Z,97917.78
2018-01-27T05:09:25.743Z,97919.81
2018-01-27T05:11:51.760Z,97914.00
2018-01-27T05:14:17.792Z,97916.49
2018-01-27T05:16:43.808Z,97913.30
2018-01-27T05:19:09.808Z,97921.72
2018-01-27T05:21:35.844Z,97927.93
2018-01-27T05:24:01.845Z,97928.23
2018-01-27T05:26:27.929Z,97924.73
2018-01-27T05:28:53.976Z,97927.47
2018-01-27T05:31:19.992Z,97926.71
2018-01-27T05:33:46.032Z,97925.41
2018-01-27T05:36:12.040Z,97924.44
2018-01-27T05:38:38.079Z,97923.88
2018-01-27T05:41:04.097Z,97931.21
2018-01-27T05:43:30.053Z,97939.69
2018-01-27T05:45:56.080Z,97939.47
2018-01-27T05:48:22.113Z,97941.55
2018-01-27T05:50:48.216Z,97952.47
2018-01-27T05:53:14.212Z,97953.62
2018-01-27T05:55:40.276Z,97958.52
2018-01-27T05:58:06.320Z,97962.52
2018-01-27T06:00:32.369Z,97966.22
2018-01-27T06:02:58.485Z,97968.83
2018-01-27T06:05:24.514Z,97972.84
2018-01-27T06:07:50.549Z,97989.02
2018-01-27T06:10:16.708Z,97990.05
2018-01-27T06:12:42.777Z,97990.26
2018-01-27T06:15:08.844Z,97994.39
2018-01-27T06:17:34.846Z,97994.02
2018-01-27T06:20:00.885Z,98011.30
2018-01-27T06:22:26.843Z,98015.56
2018-01-27T06:24:52.952Z,98011.58
2018-01-27T06:27:19.029Z,98018.39
2018-01-27T06:29:45.000Z,98031.12
2018-01-27T06:32:11.084Z,98037.31
2018-01-27T06:34:37.087Z,98039.17
2018-01-27T06:37:03.116Z,98045.22
2018-01-27T06:39:29.221Z,98055.42
2018-01-27T06:41:55.176Z,98057.76
2018-01-27T06:44:21.172Z,98052.43
2018-01-27T06:46:47.212Z,98056.27
2018-01-27T06:49:13.324Z,98054.52
2018-01-27T06:51:39.387Z,98059.14
2018-01-27T06:54:05.385Z,98061.52
2018-01-27T06:56:31.400Z,98063.77
2018-01-27T06:58:57.381Z,98057.02
2018-01-27T07:01:23.404Z,98070.09
2018-01-27T07:03:49.446Z,98077.97
2018-01-27T07:06:15.463Z,98077.03
2018-01-27T07:08:41.441Z,98084.53
2018-01-27T07:11:07.469Z,98080.97
2018-01-27T07:13:33.479Z,98074.34
2018-01-27T07:15:59.453Z,98075.14
2018-01-27T07:18:25.454Z,98073.95
2018-01-27T07:20:51.547Z,98091.69
2018-01-27T07:23:17.576Z,98083.33
2018-01-27T07:25:43.604Z,98085.72
2018-01-27T07:28:09.595Z,98091.94
2018-01-27T07:30:35.651Z,98104.53
2018-01-27T07:33:01.717Z,98113.52
2018-01-27T07:35:27.763Z,98112.00
2018-01-27T07:37:53.881Z,98111.09
2018-01-27T07:40:19.912Z,98114.23
2018-01-27T07:42:45.923Z,98116.48
2018-01-27T07:45:11.911Z,98115.70
2018-01-27T07:47:37.912Z,98122.81
2018-01-27T07:50:04.056Z,98127.63
2018-01-27T07:52:30.060Z,98116.51
2018-01-27T07:54:56.073Z,98117.05
2018-01-27T07:57:22.101Z,98115.91
2018-01-27T07:59:48.051Z,98109.33
2018-01-27T08:02:14.076Z,98111.33
2018-01-27T08:04:40.144Z,98114.52
2018-01-27T08:07:06.151Z,98110.44
2018-01-27T08:09:32.211Z,98117.81
2018-01-27T08:11:58.279Z,98120.66
2018-01-27T08:14:24.333Z,98119.78
2018-01-27T08:16:50.364Z,98115.83
2018-01-27T08:19:16.377Z,98118.17
2018-01-27T08:21:42.440Z,98116.69
2018-01-27T08:24:08.456Z,98124.38
2018-01-27T08:26:34.472Z,98127.39
2018-01-27T08:29:00.556Z,98132.59
2018-01-27T08:31:26.600Z,98132.98
2018-01-27T08:33:52.677Z,98131.22
2018-01-27T08:36:18.688Z,98144.45
2018-01-27T08:38:44.735Z,98139.47
2018-01-27T08:41:10.814Z,98146.13
2018-01-27T08:43:36.964Z,98145.51
2018-01-27T08:46:03.023Z,98153.17
2018-01-27T08:48:29.042Z,98151.05
2018-01-27T08:50:55.148Z,98142.30
2018-01-27T08:53:21.173Z,98157.31
2018-01-27T08:55:47.203Z,98159.45
2018-01-27T08:58:13.214Z,98160.64
2018-01-27T09:00:40.136Z,98163.06
2018-01-27T09:03:06.262Z,98170.20
2018-01-27T09:05:32.292Z,98178.64
2018-01-27T09:07:58.348Z,98180.18
2018-01-27T09:10:24.384Z,98190.05
2018-01-27T09:12:50.749Z,98194.05
2018-01-27T09:15:16.821Z,98197.67
2018-01-27T09:17:42.879Z,98199.22
2018-01-27T09:20:08.889Z,98196.33
2018-01-27T09:22:34.897Z,98197.47
2018-01-27T09:25:00.934Z,98200.75
2018-01-27T09:27:26.941Z,98202.98
2018-01-27T09:29:53.593Z,98204.88
2018-01-27T09:32:19.632Z,98216.45
2018-01-27T09:34:45.644Z,98211.73
2018-01-27T09:37:11.661Z,98211.69
2018-01-27T09:39:37.668Z,98219.42
2018-01-27T09:42:03.709Z,98220.72
2018-01-27T09:44:29.748Z,98226.02
2018-01-27T09:46:55.764Z,98231.82
2018-01-27T09:49:21.828Z,98230.27
2018-01-27T09:51:47.848Z,98221.88
2018-01-27T09:54:13.861Z,98229.70
2018-01-27T09:56:39.909Z,98232.02
2018-01-27T09:59:05.901Z,98233.26
2018-01-27T10:01:31.960Z,98231.06
2018-01-27T10:03:57.961Z,98231.97
2018-01-27T10:06:23.965Z,98234.38
2018-01-27T10:08:50.076Z,98236.45
2018-01-27T10:11:16.566Z,98231.41
2018-01-27T10:13:42.637Z,98234.61
2018-01-27T10:16:08.742Z,98228.13
2018-01-27T10:18:34.830Z,98238.88
2018-01-27T10:21:01.013Z,98236.50
2018-01-27T10:23:27.033Z,98234.08
2018-01-27T10:25:53.049Z,98234.34
2018-01-27T10:28:19.364Z,98229.78
2018-01-27T10:30:45.420Z,98230.22
2018-01-27T10:33:11.542Z,98238.39
2018-01-27T10:35:44.532Z,98230.38
2018-01-27T10:38:11.155Z,98225.13
2018-01-27T10:40:37.245Z,98227.66
2018-01-27T10:43:03.369Z,98217.22
2018-01-27T10:45:29.389Z,98219.22
2018-01-27T10:47:55.412Z,98220.44
2018-01-27T10:50:21.465Z,98219.22
2018-01-27T10:52:47.480Z,98228.81
2018-01-27T10:55:13.521Z,98230.31
2018-01-27T10:57:39.530Z,98232.33
2018-01-27T11:00:05.545Z,98236.31
2018-01-27T11:02:31.590Z,98240.31
2018-01-27T11:04:57.660Z,98238.55
2018-01-27T11:07:23.728Z,98239.60
2018-01-27T11:09:49.774Z,98245.00
2018-01-27T11:12:15.787Z,98253.58
2018-01-27T11:14:41.928Z,98251.93
2018-01-27T11:17:07.964Z,98255.77
2018-01-27T11:19:33.960Z,98258.47
2018-01-27T11:22:00.010Z,98262.81
2018-01-27T11:24:26.029Z,98276.36
2018-01-27T11:26:52.132Z,98276.06
2018-01-27T11:29:18.192Z,98284.88
2018-01-27T11:31:44.262Z,98287.38
2018-01-27T11:34:10.721Z,98285.01
2018-01-27T11:36:37.126Z,98283.78
2018-01-27T11:39:03.996Z,98290.70
2018-01-27T11:41:30.060Z,98301.33
2018-01-27T11:43:56.244Z,98302.37
2018-01-27T11:46:22.252Z,98311.95
2018-01-27T11:48:48.270Z,98310.24
2018-01-27T11:51:14.377Z,98311.83
2018-01-27T11:53:40.390Z,98308.72
2018-01-27T11:56:06.435Z,98313.20
2018-01-27T11:58:32.457Z,98307.95
2018-01-27T12:01:03.729Z,98304.20
2018-01-27T12:03:29.789Z,98295.73
2018-01-27T12:05:55.856Z,98301.31
2018-01-27T12:08:21.926Z,98308.48
2018-01-27T12:10:48.146Z,98295.42
2018-01-27T12:13:14.184Z,98305.94
2018-01-27T12:15:40.327Z,98302.70
2018-01-27T12:18:06.415Z,98299.20
2018-01-27T12:20:32.548Z,98294.74
2018-01-27T12:22:58.620Z,98294.98
2018-01-27T12:25:24.722Z,98295.34
2018-01-27T12:27:50.793Z,98291.77
2018-01-27T12:30:16.849Z,98293.05
2018-01-27T12:32:42.940Z,98287.56
2018-01-27T12:35:09.132Z,98279.57
2018-01-27T12:37:35.193Z,98276.09
2018-01-27T12:40:01.205Z,98269.58
2018-01-27T12:42:27.311Z,98276.11
2018-01-27T12:44:53.326Z,98280.36
2018-01-27T12:47:19.346Z,98279.72
2018-01-27T12:49:45.411Z,98283.48
2018-01-27T12:52:11.509Z,98283.22
2018-01-27T12:54:37.532Z,98283.13
2018-01-27T12:57:03.690Z,98278.31
2018-01-27T12:59:29.728Z,98281.23
2018-01-27T13:01:57.387Z,98279.55
2018-01-27T13:04:23.436Z,98284.41
2018-01-27T13:06:49.482Z,98284.05
2018-01-27T13:09:15.505Z,98275.86
2018-01-27T13:11:41.496Z,98285.72
2018-01-27T13:14:07.542Z,98282.23
2018-01-27T13:16:33.557Z,98279.75
2018-01-27T13:18:59.560Z,98273.77
2018-01-27T13:21:25.525Z,98279.28
2018-01-27T13:23:51.853Z,98282.95
2018-01-27T13:26:17.939Z,98276.21
2018-01-27T13:28:44.004Z,98277.43
2018-01-27T13:31:10.062Z,98267.75
2018-01-27T13:33:37.037Z,98272.48
2018-01-27T13:36:03.032Z,98268.06
2018-01-27T13:38:29.093Z,98267.03
2018-01-27T13:40:55.233Z,98274.04
2018-01-27T13:43:21.153Z,98272.92
2018-01-27T13:45:47.260Z,98268.73
2018-01-27T13:48:13.268Z,98268.73
2018-01-27T13:50:39.363Z,98273.48
2018-01-27T13:53:05.387Z,98271.89
2018-01-27T13:55:31.368Z,98272.14
2018-01-27T13:57:57.795Z,98266.66
2018-01-27T14:00:23.968Z,98269.80
2018-01-27T14:02:51.568Z,98259.27
2018-01-27T14:05:17.601Z,98258.20
2018-01-27T14:07:43.644Z,98262.59
2018-01-27T14:10:09.832Z,98265.97
2018-01-27T14:12:35.869Z,98266.20
2018-01-27T14:15:01.902Z,98276.75
2018-01-27T14:17:27.922Z,98275.23
2018-01-27T14:19:54.020Z,98274.55
2018-01-27T14:22:20.034Z,98279.88
2018-01-27T14:24:46.064Z,98288.55
2018-01-27T14:27:12.229Z,98290.78
2018-01-27T14:29:38.248Z,98289.59
2018-01-27T14:32:04.391Z,98281.36
2018-01-27T14:34:30.416Z,98281.27
2018-01-27T14:36:56.458Z,98284.13
2018-01-27T14:39:22.505Z,98288.50
2018-01-27T14:41:48.632Z,98292.78
2018-01-27T14:44:14.689Z,98286.88
2018-01-27T14:46:40.726Z,98297.20
2018-01-27T14:49:06.811Z,98294.72
2018-01-27T14:51:32.980Z,98295.72
2018-01-27T14:53:58.992Z,98302.80
2018-01-27T14:56:25.109Z,98307.87
2018-01-27T14:58:51.125Z,98305.20
2018-01-27T15:01:17.143Z,98311.02
2018-01-27T15:03:43.208Z,98317.18
2018-01-27T15:06:09.313Z,98314.41
2018-01-27T15:08:35.375Z,98324.27
2018-01-27T15:11:01.425Z,98326.09
2018-01-27T15:13:27.418Z,98325.52
2018-01-27T15:15:53.471Z,98335.95
2018-01-27T15:18:19.468Z,98329.91
2018-01-27T15:20:45.492Z,98342.24
2018-01-27T15:23:11.578Z,98337.73
2018-01-27T15:25:37.590Z,98333.33
2018-01-27T15:28:03.848Z,98330.91
2018-01-27T15:30:29.850Z,98338.75
2018-01-27T15:32:55.830Z,98333.90
2018-01-27T15:35:21.984Z,98335.13
2018-01-27T15:37:48.165Z,98341.05
2018-01-27T15:40:14.218Z,98338.05
2018-01-27T15:42:40.240Z,98348.80
2018-01-27T15:45:06.289Z,98346.17
2018-01-27T15:47:32.373Z,98348.13
2018-01-27T15:49:58.484Z,98342.22
2018-01-27T15:52:24.533Z,98353.70
2018-01-27T15:54:50.583Z,98350.58
2018-01-27T15:57:16.689Z,98357.02
2018-01-27T15:59:42.723Z,98357.81
2018-01-27T16:02:08.756Z,98359.64
2018-01-27T16:04:34.940Z,98363.98
2018-01-27T16:07:01.004Z,98383.39
2018-01-27T16:09:27.074Z,98391.66
2018-01-27T16:11:53.132Z,98390.13
2018-01-27T16:14:19.177Z,98385.15
2018-01-27T16:16:45.248Z,98386.21
2018-01-27T16:19:11.301Z,98398.94
2018-01-27T16:21:37.353Z,98391.70
2018-01-27T16:24:03.422Z,98375.56
2018-01-27T16:26:29.490Z,98374.89
2018-01-27T16:28:56.397Z,98380.24
2018-01-27T16:31:22.529Z,98377.98
2018-01-27T16:33:48.627Z,98382.94
2018-01-27T16:36:14.654Z,98393.30
2018-01-27T16:38:40.689Z,98394.69
2018-01-27T16:41:06.704Z,98389.44
2018-01-27T16:43:32.689Z,98398.09
2018-01-27T16:45:58.761Z,98402.44
2018-01-27T16:48:24.884Z,98411.07
2018-01-27T16:50:50.920Z,98419.01
2018-01-27T16:53:16.964Z,98424.50
2018-01-27T16:55:43.076Z,98430.02
2018-01-27T16:58:09.079Z,98431.97
2018-01-27T17:00:35.126Z,98432.03
2018-01-27T17:03:01.181Z,98431.97
2018-01-27T17:05:27.198Z,98427.45
2018-01-27T17:07:53.248Z,98424.16
2018-01-27T17:10:19.309Z,98430.56
2018-01-27T17:12:45.333Z,98427.48
2018-01-27T17:15:11.357Z,98431.17
2018-01-27T17:17:37.397Z,98432.03
2018-01-27T17:20:04.543Z,98427.20
2018-01-27T17:22:30.585Z,98429.59
2018-01-27T17:24:56.659Z,98432.45
2018-01-27T17:27:22.721Z,98431.45
2018-01-27T17:29:48.848Z,98432.94
2018-01-27T17:32:14.896Z,98431.86
2018-01-27T17:34:41.030Z,98437.63
2018-01-27T17:37:07.079Z,98447.53
2018-01-27T17:39:33.096Z,98450.62
2018-01-27T17:41:59.145Z,98456.38
2018-01-27T17:44:25.236Z,98455.00
2018-01-27T17:46:51.235Z,98454.13
2018-01-27T17:49:17.245Z,98454.59
2018-01-27T17:51:43.317Z,98450.82
2018-01-27T17:54:09.412Z,98444.88
2018-01-27T17:56:35.424Z,98452.23
2018-01-27T17:59:01.502Z,98445.53
2018-01-27T18:01:27.521Z,98442.16
2018-01-27T18:03:53.549Z,98446.09
2018-01-27T18:06:26.600Z,98445.84
2018-01-27T18:08:52.598Z,98451.56
2018-01-27T18:11:18.614Z,98442.97
2018-01-27T18:13:44.700Z,98443.21
2018-01-27T18:16:10.818Z,98435.75
2018-01-27T18:18:36.905Z,98429.73
2018-01-27T18:21:02.989Z,98427.77
2018-01-27T18:23:29.138Z,98423.31
2018-01-27T18:25:55.197Z,98424.53
2018-01-27T18:28:21.258Z,98418.80
2018-01-27T18:30:47.296Z,98419.16
2018-01-27T18:33:13.326Z,98420.12
2018-01-27T18:35:39.344Z,98422.28
2018-01-27T18:38:05.383Z,98428.44
2018-01-27T18:40:31.425Z,98425.59
2018-01-27T18:42:57.474Z,98417.22
2018-01-27T18:45:23.481Z,98417.45
2018-01-27T18:47:49.529Z,98421.52
2018-01-27T18:50:15.574Z,98426.05
2018-01-27T18:52:41.559Z,98421.08
2018-01-27T18:55:07.607Z,98421.14
2018-01-27T18:57:33.627Z,98423.24
2018-01-27T18:59:59.622Z,98426.98
2018-01-27T19:02:25.641Z,98431.87
2018-01-27T19:04:51.660Z,98432.14
2018-01-27T19:07:17.708Z,98428.97
2018-01-27T19:09:43.788Z,98434.75
2018-01-27T19:12:10.001Z,98436.34
2018-01-27T19:14:36.062Z,98448.61
2018-01-27T19:17:02.038Z,98455.41
2018-01-27T19:19:28.097Z,98449.96
2018-01-27T19:21:54.145Z,98457.70
2018-01-27T19:24:20.262Z,98456.45
2018-01-27T19:26:46.292Z,98461.29
2018-01-27T19:29:12.316Z,98459.07
2018-01-27T19:31:38.345Z,98447.77
2018-01-27T19:34:04.550Z,98448.28
2018-01-27T19:36:30.613Z,98454.47
2018-01-27T19:38:56.628Z,98456.79
2018-01-27T19:41:22.674Z,98460.20
2018-01-27T19:43:48.707Z,98461.13
2018-01-27T19:46:14.732Z,98457.72
2018-01-27T19:48:40.765Z,98458.91
2018-01-27T19:51:06.791Z,98459.17
2018-01-27T19:53:32.857Z,98456.30
2018-01-27T19:55:59.300Z,98445.90
2018-01-27T19:58:25.306Z,98445.16
2018-01-27T20:00:51.396Z,98441.80
2018-01-27T20:03:17.431Z,98442.04
2018-01-27T20:05:43.480Z,98436.81
2018-01-27T20:08:09.493Z,98440.22
2018-01-27T20:10:35.533Z,98444.02
2018-01-27T20:13:01.589Z,98459.19
2018-01-27T20:15:27.677Z,98468.45
2018-01-27T20:17:53.688Z,98457.38
2018-01-27T20:20:19.753Z,98456.41
2018-01-27T20:22:45.761Z,98454.02
2018-01-27T20:25:12.078Z,98456.23
2018-01-27T20:27:38.096Z,98456.35
2018-01-27T20:30:04.109Z,98462.27
2018-01-27T20:32:30.180Z,98458.03
2018-01-27T20:34:56.177Z,98452.52
2018-01-27T20:37:22.209Z,98450.84
2018-01-27T20:39:48.214Z,98453.79
2018-01-27T20:42:14.296Z,98455.50
2018-01-27T20:44:40.414Z,98459.30
2018-01-27T20:47:06.493Z,98461.66
2018-01-27T20:49:32.604Z,98458.91
2018-01-27T20:51:58.693Z,98458.05
2018-01-27T20:54:24.792Z,98458.05
2018-01-27T20:56:50.817Z,98452.65
2018-01-27T20:59:16.924Z,98454.47
2018-01-27T21:01:42.984Z,98446.92
2018-01-27T21:04:09.079Z,98437.30
2018-01-27T21:06:35.144Z,98434.06
2018-01-27T21:09:01.203Z,98430.44
2018-01-27T21:11:27.274Z,98423.98
2018-01-27T21:13:53.332Z,98424.48
2018-01-27T21:16:19.448Z,98414.03
2018-01-27T21:18:45.433Z,98408.05
2018-01-27T21:21:11.454Z,98405.09
2018-01-27T21:23:37.473Z,98407.58
2018-01-27T21:26:03.588Z,98407.58
2018-01-27T21:28:29.617Z,98412.02
2018-01-27T21:30:55.673Z,98421.39
2018-01-27T21:33:21.713Z,98430.08
2018-01-27T21:35:48.090Z,98437.81
2018-01-27T21:38:14.144Z,98435.83
2018-01-27T21:40:40.148Z,98430.73
2018-01-27T21:43:06.218Z,98421.48
2018-01-27T21:45:32.232Z,98412.72
2018-01-27T21:47:58.300Z,98409.13
2018-01-27T21:50:24.338Z,98408.83
2018-01-27T21:52:50.378Z,98410.59
2018-01-27T21:55:16.446Z,98404.78
2018-01-27T21:57:42.514Z,98407.59
2018-01-27T22:00:08.965Z,98406.91
2018-01-27T22:02:35.028Z,98405.15
2018-01-27T22:05:01.248Z,98408.28
2018-01-27T22:07:27.427Z,98414.19
2018-01-27T22:09:53.501Z,98407.72
2018-01-27T22:12:19.537Z,98400.77
2018-01-27T22:14:45.645Z,98405.39
2018-01-27T22:17:11.696Z,98400.44
2018-01-27T22:19:37.789Z,98400.02
2018-01-27T22:22:03.897Z,98394.20
2018-01-27T22:24:30.178Z,98400.92
2018-01-27T22:26:56.211Z,98396.53
2018-01-27T22:29:22.280Z,98397.98
2018-01-27T22:31:48.345Z,98395.95
2018-01-27T22:34:14.443Z,98397.94
2018-01-27T22:36:40.620Z,98394.30
2018-01-27T22:39:17.959Z,98395.43
2018-01-27T22:41:44.105Z,98398.16
2018-01-27T22:44:10.371Z,98394.48
2018-01-27T22:46:36.404Z,98402.80
2018-01-27T22:49:02.494Z,98416.78
2018-01-27T22:51:28.536Z,98422.42
2018-01-27T22:53:54.554Z,98423.61
2018-01-27T22:56:20.580Z,98425.03
2018-01-27T22:58:46.708Z,98431.18
2018-01-27T23:01:22.814Z,98423.52
2018-01-27T23:03:48.838Z,98420.97
2018-01-27T23:06:14.863Z,98405.04
2018-01-27T23:08:40.884Z,98401.45
2018-01-27T23:11:07.009Z,98389.84
2018-01-27T23:13:33.022Z,98395.59
2018-01-27T23:15:59.066Z,98398.40
2018-01-27T23:18:25.133Z,98399.87
2018-01-27T23:20:51.228Z,98400.69
2018-01-27T23:23:17.492Z,98407.53
2018-01-27T23:25:43.511Z,98407.55
2018-01-27T23:28:09.545Z,98400.27
2018-01-27T23:30:35.723Z,98400.31
2018-01-27T23:33:01.768Z,98396.30
2018-01-27T23:35:27.764Z,98392.05
2018-01-27T23:37:53.802Z,98395.55
2018-01-27T23:40:19.900Z,98390.83
2018-01-27T23:42:45.938Z,98377.70
2018-01-27T23:45:12.000Z,98376.25
2018-01-27T23:47:38.063Z,98378.36
2018-01-27T23:50:04.060Z,98390.33
2018-01-27T23:52:30.125Z,98392.42
2018-01-27T23:54:56.120Z,98390.33
2018-01-27T23:57:22.174Z,98378.08
2018-01-27T23:59:48.240Z,98370.19
